sensor_id;sensor_type;location;lat;lon;timestamp;temperature;humidity
29453;DHT22;16424;50.956;5.320;2023-11-19T00:01:10;13.70;99.90
29453;DHT22;16424;50.956;5.320;2023-11-19T00:03:36;13.60;99.90
29453;DHT22;16424;50.956;5.320;2023-11-19T00:06:02;13.60;99.90
29453;DHT22;16424;50.956;5.320;2023-11-19T00:08:29;13.60;99.90
29453;DHT22;16424;50.956;5.320;2023-11-19T00:10:55;13.60;99.90
29453;DHT22;16424;50.956;5.320;2023-11-19T00:13:21;13.70;99.90
29453;DHT22;16424;50.956;5.320;2023-11-19T00:15:46;13.70;99.90
29453;DHT22;16424;50.956;5.320;2023-11-19T00:18:13;13.70;99.90
29453;DHT22;16424;50.956;5.320;2023-11-19T00:20:39;13.60;99.90
29453;DHT22;16424;50.956;5.320;2023-11-19T00:23:05;13.60;99.90
29453;DHT22;16424;50.956;5.320;2023-11-19T00:25:31;13.60;99.90
29453;DHT22;16424;50.956;5.320;2023-11-19T00:27:56;13.70;99.90
29453;DHT22;16424;50.956;5.320;2023-11-19T00:30:22;13.80;99.90
29453;DHT22;16424;50.956;5.320;2023-11-19T00:32:48;13.70;99.90
29453;DHT22;16424;50.956;5.320;2023-11-19T00:35:14;13.70;99.90
29453;DHT22;16424;50.956;5.320;2023-11-19T00:37:39;13.60;99.90
29453;DHT22;16424;50.956;5.320;2023-11-19T00:40:06;13.60;99.90
29453;DHT22;16424;50.956;5.320;2023-11-19T00:42:32;13.70;99.90
29453;DHT22;16424;50.956;5.320;2023-11-19T00:44:58;13.80;99.90
29453;DHT22;16424;50.956;5.320;2023-11-19T00:47:23;13.80;99.90
29453;DHT22;16424;50.956;5.320;2023-11-19T00:49:49;13.80;99.90
29453;DHT22;16424;50.956;5.320;2023-11-19T00:52:16;13.80;99.90
29453;DHT22;16424;50.956;5.320;2023-11-19T00:54:42;13.80;99.90
29453;DHT22;16424;50.956;5.320;2023-11-19T00:57:08;13.80;99.90
29453;DHT22;16424;50.956;5.320;2023-11-19T00:59:33;13.80;99.90
29453;DHT22;16424;50.956;5.320;2023-11-19T01:01:59;13.80;99.90
29453;DHT22;16424;50.956;5.320;2023-11-19T01:04:29;13.80;99.90
29453;DHT22;16424;50.956;5.320;2023-11-19T01:06:55;13.80;99.90
29453;DHT22;16424;50.956;5.320;2023-11-19T01:09:20;13.80;99.90
29453;DHT22;16424;50.956;5.320;2023-11-19T01:11:46;13.80;99.90
29453;DHT22;16424;50.956;5.320;2023-11-19T01:14:12;13.90;99.90
29453;DHT22;16424;50.956;5.320;2023-11-19T01:16:37;14.00;99.90
29453;DHT22;16424;50.956;5.320;2023-11-19T01:19:03;13.90;99.90
29453;DHT22;16424;50.956;5.320;2023-11-19T01:21:30;13.90;99.90
29453;DHT22;16424;50.956;5.320;2023-11-19T01:23:57;13.80;99.90
29453;DHT22;16424;50.956;5.320;2023-11-19T01:26:24;13.90;99.90
29453;DHT22;16424;50.956;5.320;2023-11-19T01:28:49;13.80;99.90
29453;DHT22;16424;50.956;5.320;2023-11-19T01:31:18;13.80;99.90
29453;DHT22;16424;50.956;5.320;2023-11-19T01:33:44;13.80;99.90
29453;DHT22;16424;50.956;5.320;2023-11-19T01:36:13;13.80;99.90
29453;DHT22;16424;50.956;5.320;2023-11-19T01:38:38;13.90;99.90
29453;DHT22;16424;50.956;5.320;2023-11-19T01:41:04;13.90;99.90
29453;DHT22;16424;50.956;5.320;2023-11-19T01:43:38;13.90;99.90
29453;DHT22;16424;50.956;5.320;2023-11-19T01:46:05;13.90;99.90
29453;DHT22;16424;50.956;5.320;2023-11-19T01:48:33;14.00;99.90
29453;DHT22;16424;50.956;5.320;2023-11-19T01:51:00;14.10;99.90
29453;DHT22;16424;50.956;5.320;2023-11-19T01:53:27;14.20;99.90
29453;DHT22;16424;50.956;5.320;2023-11-19T01:55:53;14.10;99.90
29453;DHT22;16424;50.956;5.320;2023-11-19T01:58:19;14.10;99.90
29453;DHT22;16424;50.956;5.320;2023-11-19T02:00:45;14.10;99.90
29453;DHT22;16424;50.956;5.320;2023-11-19T02:03:11;14.20;99.90
29453;DHT22;16424;50.956;5.320;2023-11-19T02:05:39;14.20;99.90
29453;DHT22;16424;50.956;5.320;2023-11-19T02:08:05;14.20;99.90
29453;DHT22;16424;50.956;5.320;2023-11-19T02:10:30;14.20;99.90
29453;DHT22;16424;50.956;5.320;2023-11-19T02:12:58;14.10;99.90
29453;DHT22;16424;50.956;5.320;2023-11-19T02:15:23;14.00;99.90
29453;DHT22;16424;50.956;5.320;2023-11-19T02:17:52;13.90;99.90
29453;DHT22;16424;50.956;5.320;2023-11-19T02:20:18;13.90;99.90
29453;DHT22;16424;50.956;5.320;2023-11-19T02:22:46;13.80;99.90
29453;DHT22;16424;50.956;5.320;2023-11-19T02:25:17;13.70;99.90
29453;DHT22;16424;50.956;5.320;2023-11-19T02:28:00;13.60;99.90
29453;DHT22;16424;50.956;5.320;2023-11-19T02:30:26;13.60;99.90
29453;DHT22;16424;50.956;5.320;2023-11-19T02:33:01;13.50;99.90
29453;DHT22;16424;50.956;5.320;2023-11-19T02:35:30;13.60;99.90
29453;DHT22;16424;50.956;5.320;2023-11-19T02:37:57;13.60;99.90
29453;DHT22;16424;50.956;5.320;2023-11-19T02:40:24;13.80;99.90
29453;DHT22;16424;50.956;5.320;2023-11-19T02:42:51;14.00;99.90
29453;DHT22;16424;50.956;5.320;2023-11-19T02:45:17;13.80;99.90
29453;DHT22;16424;50.956;5.320;2023-11-19T02:47:43;13.90;99.90
29453;DHT22;16424;50.956;5.320;2023-11-19T02:50:10;14.00;99.90
29453;DHT22;16424;50.956;5.320;2023-11-19T02:52:42;13.90;99.90
29453;DHT22;16424;50.956;5.320;2023-11-19T02:55:09;13.70;99.90
29453;DHT22;16424;50.956;5.320;2023-11-19T02:57:40;13.60;99.90
29453;DHT22;16424;50.956;5.320;2023-11-19T03:00:15;13.60;99.90
29453;DHT22;16424;50.956;5.320;2023-11-19T03:02:41;13.60;99.90
29453;DHT22;16424;50.956;5.320;2023-11-19T03:05:12;13.60;99.90
29453;DHT22;16424;50.956;5.320;2023-11-19T03:07:37;13.60;99.90
29453;DHT22;16424;50.956;5.320;2023-11-19T03:10:03;13.60;99.90
29453;DHT22;16424;50.956;5.320;2023-11-19T03:12:31;13.60;99.90
29453;DHT22;16424;50.956;5.320;2023-11-19T03:14:57;13.60;99.90
29453;DHT22;16424;50.956;5.320;2023-11-19T03:17:22;13.60;99.90
29453;DHT22;16424;50.956;5.320;2023-11-19T03:19:49;13.50;99.90
29453;DHT22;16424;50.956;5.320;2023-11-19T03:22:15;13.50;99.90
29453;DHT22;16424;50.956;5.320;2023-11-19T03:24:40;13.50;99.90
29453;DHT22;16424;50.956;5.320;2023-11-19T03:27:06;13.50;99.90
29453;DHT22;16424;50.956;5.320;2023-11-19T03:29:32;13.50;99.90
29453;DHT22;16424;50.956;5.320;2023-11-19T03:31:57;13.40;99.90
29453;DHT22;16424;50.956;5.320;2023-11-19T03:34:23;13.60;99.90
29453;DHT22;16424;50.956;5.320;2023-11-19T03:36:49;13.60;99.90
29453;DHT22;16424;50.956;5.320;2023-11-19T03:39:14;13.50;99.90
29453;DHT22;16424;50.956;5.320;2023-11-19T03:41:40;13.40;99.90
29453;DHT22;16424;50.956;5.320;2023-11-19T03:44:05;13.50;99.90
29453;DHT22;16424;50.956;5.320;2023-11-19T03:46:31;13.50;99.90
29453;DHT22;16424;50.956;5.320;2023-11-19T03:48:57;13.40;99.90
29453;DHT22;16424;50.956;5.320;2023-11-19T03:51:23;13.40;99.90
29453;DHT22;16424;50.956;5.320;2023-11-19T03:53:48;13.50;99.90
29453;DHT22;16424;50.956;5.320;2023-11-19T03:56:14;13.50;99.90
29453;DHT22;16424;50.956;5.320;2023-11-19T03:58:39;13.60;99.90
29453;DHT22;16424;50.956;5.320;2023-11-19T04:01:06;13.60;99.90
29453;DHT22;16424;50.956;5.320;2023-11-19T04:03:36;13.50;99.90
29453;DHT22;16424;50.956;5.320;2023-11-19T04:06:02;13.40;99.90
29453;DHT22;16424;50.956;5.320;2023-11-19T04:08:28;13.30;99.90
29453;DHT22;16424;50.956;5.320;2023-11-19T04:10:53;13.30;99.90
29453;DHT22;16424;50.956;5.320;2023-11-19T04:13:19;13.20;99.90
29453;DHT22;16424;50.956;5.320;2023-11-19T04:15:45;13.30;99.90
29453;DHT22;16424;50.956;5.320;2023-11-19T04:18:11;13.30;99.90
29453;DHT22;16424;50.956;5.320;2023-11-19T04:20:36;13.20;99.90
29453;DHT22;16424;50.956;5.320;2023-11-19T04:23:02;13.30;99.90
29453;DHT22;16424;50.956;5.320;2023-11-19T04:25:28;13.20;99.90
29453;DHT22;16424;50.956;5.320;2023-11-19T04:27:54;13.20;99.90
29453;DHT22;16424;50.956;5.320;2023-11-19T04:30:19;13.20;99.90
29453;DHT22;16424;50.956;5.320;2023-11-19T04:32:45;13.10;99.90
29453;DHT22;16424;50.956;5.320;2023-11-19T04:35:11;13.10;99.90
29453;DHT22;16424;50.956;5.320;2023-11-19T04:37:37;13.20;99.90
29453;DHT22;16424;50.956;5.320;2023-11-19T04:40:03;13.20;99.90
29453;DHT22;16424;50.956;5.320;2023-11-19T04:42:29;13.20;99.90
29453;DHT22;16424;50.956;5.320;2023-11-19T04:44:55;13.10;99.90
29453;DHT22;16424;50.956;5.320;2023-11-19T04:47:21;13.00;99.90
29453;DHT22;16424;50.956;5.320;2023-11-19T04:49:47;13.00;99.90
29453;DHT22;16424;50.956;5.320;2023-11-19T04:52:12;12.90;99.90
29453;DHT22;16424;50.956;5.320;2023-11-19T04:54:44;12.90;99.90
29453;DHT22;16424;50.956;5.320;2023-11-19T04:57:10;12.90;99.90
29453;DHT22;16424;50.956;5.320;2023-11-19T04:59:39;12.90;99.90
29453;DHT22;16424;50.956;5.320;2023-11-19T05:02:05;12.90;99.90
29453;DHT22;16424;50.956;5.320;2023-11-19T05:04:31;13.00;99.90
29453;DHT22;16424;50.956;5.320;2023-11-19T05:06:56;12.90;99.90
29453;DHT22;16424;50.956;5.320;2023-11-19T05:09:22;13.00;99.90
29453;DHT22;16424;50.956;5.320;2023-11-19T05:11:48;13.00;99.90
29453;DHT22;16424;50.956;5.320;2023-11-19T05:14:14;13.00;99.90
29453;DHT22;16424;50.956;5.320;2023-11-19T05:16:40;13.10;99.90
29453;DHT22;16424;50.956;5.320;2023-11-19T05:19:06;13.10;99.90
29453;DHT22;16424;50.956;5.320;2023-11-19T05:21:31;13.10;99.90
29453;DHT22;16424;50.956;5.320;2023-11-19T05:23:57;13.10;99.90
29453;DHT22;16424;50.956;5.320;2023-11-19T05:26:23;13.00;99.90
29453;DHT22;16424;50.956;5.320;2023-11-19T05:28:50;13.00;99.90
29453;DHT22;16424;50.956;5.320;2023-11-19T05:31:16;12.90;99.90
29453;DHT22;16424;50.956;5.320;2023-11-19T05:33:42;12.90;99.90
29453;DHT22;16424;50.956;5.320;2023-11-19T05:36:08;12.90;99.90
29453;DHT22;16424;50.956;5.320;2023-11-19T05:38:36;12.80;99.90
29453;DHT22;16424;50.956;5.320;2023-11-19T05:41:02;12.80;99.90
29453;DHT22;16424;50.956;5.320;2023-11-19T05:43:28;12.70;99.90
29453;DHT22;16424;50.956;5.320;2023-11-19T05:45:54;12.70;99.90
29453;DHT22;16424;50.956;5.320;2023-11-19T05:48:19;12.70;99.90
29453;DHT22;16424;50.956;5.320;2023-11-19T05:50:45;12.70;99.90
29453;DHT22;16424;50.956;5.320;2023-11-19T05:53:11;12.70;99.90
29453;DHT22;16424;50.956;5.320;2023-11-19T05:55:39;12.60;99.90
29453;DHT22;16424;50.956;5.320;2023-11-19T05:58:15;12.60;99.90
29453;DHT22;16424;50.956;5.320;2023-11-19T06:00:41;12.60;99.90
29453;DHT22;16424;50.956;5.320;2023-11-19T06:03:09;12.60;99.90
29453;DHT22;16424;50.956;5.320;2023-11-19T06:05:35;12.60;99.90
29453;DHT22;16424;50.956;5.320;2023-11-19T06:08:01;12.60;99.90
29453;DHT22;16424;50.956;5.320;2023-11-19T06:10:27;12.60;99.90
29453;DHT22;16424;50.956;5.320;2023-11-19T06:12:59;12.50;99.90
29453;DHT22;16424;50.956;5.320;2023-11-19T06:15:28;12.60;99.90
29453;DHT22;16424;50.956;5.320;2023-11-19T06:17:54;12.50;99.90
29453;DHT22;16424;50.956;5.320;2023-11-19T06:20:20;12.50;99.90
29453;DHT22;16424;50.956;5.320;2023-11-19T06:22:46;12.40;99.90
29453;DHT22;16424;50.956;5.320;2023-11-19T06:25:12;12.40;99.90
29453;DHT22;16424;50.956;5.320;2023-11-19T06:27:40;12.20;99.90
29453;DHT22;16424;50.956;5.320;2023-11-19T06:30:07;12.20;99.90
29453;DHT22;16424;50.956;5.320;2023-11-19T06:32:32;12.30;99.90
29453;DHT22;16424;50.956;5.320;2023-11-19T06:34:58;12.40;99.90
29453;DHT22;16424;50.956;5.320;2023-11-19T06:37:24;12.30;99.90
29453;DHT22;16424;50.956;5.320;2023-11-19T06:39:49;12.30;99.90
29453;DHT22;16424;50.956;5.320;2023-11-19T06:42:15;12.40;99.90
29453;DHT22;16424;50.956;5.320;2023-11-19T06:44:40;12.40;99.90
29453;DHT22;16424;50.956;5.320;2023-11-19T06:47:06;12.30;99.90
29453;DHT22;16424;50.956;5.320;2023-11-19T06:49:32;12.20;99.90
29453;DHT22;16424;50.956;5.320;2023-11-19T06:51:58;12.20;99.90
29453;DHT22;16424;50.956;5.320;2023-11-19T06:54:24;12.30;99.90
29453;DHT22;16424;50.956;5.320;2023-11-19T06:56:50;12.30;99.90
29453;DHT22;16424;50.956;5.320;2023-11-19T06:59:15;12.30;99.90
29453;DHT22;16424;50.956;5.320;2023-11-19T07:01:41;12.30;99.90
29453;DHT22;16424;50.956;5.320;2023-11-19T07:04:13;12.30;99.90
29453;DHT22;16424;50.956;5.320;2023-11-19T07:06:39;12.40;99.90
29453;DHT22;16424;50.956;5.320;2023-11-19T07:09:08;12.40;99.90
29453;DHT22;16424;50.956;5.320;2023-11-19T07:11:38;12.30;99.90
29453;DHT22;16424;50.956;5.320;2023-11-19T07:14:05;12.30;99.90
29453;DHT22;16424;50.956;5.320;2023-11-19T07:16:32;12.30;99.90
29453;DHT22;16424;50.956;5.320;2023-11-19T07:19:00;12.30;99.90
29453;DHT22;16424;50.956;5.320;2023-11-19T07:21:26;12.20;99.90
29453;DHT22;16424;50.956;5.320;2023-11-19T07:23:55;12.30;99.90
29453;DHT22;16424;50.956;5.320;2023-11-19T07:26:21;12.30;99.90
29453;DHT22;16424;50.956;5.320;2023-11-19T07:28:48;12.30;99.90
29453;DHT22;16424;50.956;5.320;2023-11-19T07:31:13;12.30;99.90
29453;DHT22;16424;50.956;5.320;2023-11-19T07:33:40;12.30;99.90
29453;DHT22;16424;50.956;5.320;2023-11-19T07:36:08;12.20;99.90
29453;DHT22;16424;50.956;5.320;2023-11-19T07:38:34;12.20;99.90
29453;DHT22;16424;50.956;5.320;2023-11-19T07:41:00;12.40;99.90
29453;DHT22;16424;50.956;5.320;2023-11-19T07:43:26;12.30;99.90
29453;DHT22;16424;50.956;5.320;2023-11-19T07:45:51;12.30;99.90
29453;DHT22;16424;50.956;5.320;2023-11-19T07:48:17;12.50;99.90
29453;DHT22;16424;50.956;5.320;2023-11-19T07:50:48;12.60;99.90
29453;DHT22;16424;50.956;5.320;2023-11-19T07:53:16;12.60;99.90
29453;DHT22;16424;50.956;5.320;2023-11-19T07:55:42;13.00;99.90
29453;DHT22;16424;50.956;5.320;2023-11-19T07:58:10;13.20;99.90
29453;DHT22;16424;50.956;5.320;2023-11-19T08:00:35;13.30;99.90
29453;DHT22;16424;50.956;5.320;2023-11-19T08:03:01;13.50;99.90
29453;DHT22;16424;50.956;5.320;2023-11-19T08:05:27;13.60;99.90
29453;DHT22;16424;50.956;5.320;2023-11-19T08:07:52;13.70;99.90
29453;DHT22;16424;50.956;5.320;2023-11-19T08:10:19;13.90;99.90
29453;DHT22;16424;50.956;5.320;2023-11-19T08:12:47;14.10;99.90
29453;DHT22;16424;50.956;5.320;2023-11-19T08:15:13;14.20;99.90
29453;DHT22;16424;50.956;5.320;2023-11-19T08:17:39;13.80;99.90
29453;DHT22;16424;50.956;5.320;2023-11-19T08:20:05;13.70;99.90
29453;DHT22;16424;50.956;5.320;2023-11-19T08:22:38;13.90;99.90
29453;DHT22;16424;50.956;5.320;2023-11-19T08:25:05;14.20;99.90
29453;DHT22;16424;50.956;5.320;2023-11-19T08:27:31;14.50;99.90
29453;DHT22;16424;50.956;5.320;2023-11-19T08:29:56;14.70;99.90
29453;DHT22;16424;50.956;5.320;2023-11-19T08:32:24;14.40;99.90
29453;DHT22;16424;50.956;5.320;2023-11-19T08:34:50;14.40;99.90
29453;DHT22;16424;50.956;5.320;2023-11-19T08:37:15;14.80;99.90
29453;DHT22;16424;50.956;5.320;2023-11-19T08:39:43;14.70;99.90
29453;DHT22;16424;50.956;5.320;2023-11-19T08:42:09;14.90;99.90
29453;DHT22;16424;50.956;5.320;2023-11-19T08:44:34;15.00;99.90
29453;DHT22;16424;50.956;5.320;2023-11-19T08:47:00;15.00;99.90
29453;DHT22;16424;50.956;5.320;2023-11-19T08:49:26;15.20;99.90
29453;DHT22;16424;50.956;5.320;2023-11-19T08:51:51;14.70;99.90
29453;DHT22;16424;50.956;5.320;2023-11-19T08:54:17;14.40;99.90
29453;DHT22;16424;50.956;5.320;2023-11-19T08:56:43;14.40;99.90
29453;DHT22;16424;50.956;5.320;2023-11-19T08:59:08;14.60;99.90
29453;DHT22;16424;50.956;5.320;2023-11-19T09:01:37;14.50;99.90
29453;DHT22;16424;50.956;5.320;2023-11-19T09:04:03;14.90;99.90
29453;DHT22;16424;50.956;5.320;2023-11-19T09:06:29;14.90;99.90
29453;DHT22;16424;50.956;5.320;2023-11-19T09:08:55;15.20;99.90
29453;DHT22;16424;50.956;5.320;2023-11-19T09:11:25;15.40;99.90
29453;DHT22;16424;50.956;5.320;2023-11-19T09:13:51;15.50;99.90
29453;DHT22;16424;50.956;5.320;2023-11-19T09:16:17;15.80;99.90
29453;DHT22;16424;50.956;5.320;2023-11-19T09:18:42;15.40;99.90
29453;DHT22;16424;50.956;5.320;2023-11-19T09:21:10;15.30;99.90
29453;DHT22;16424;50.956;5.320;2023-11-19T09:23:36;14.90;99.90
29453;DHT22;16424;50.956;5.320;2023-11-19T09:26:05;15.10;99.90
29453;DHT22;16424;50.956;5.320;2023-11-19T09:28:31;15.10;99.90
29453;DHT22;16424;50.956;5.320;2023-11-19T09:30:57;15.20;99.90
29453;DHT22;16424;50.956;5.320;2023-11-19T09:33:24;15.20;99.90
29453;DHT22;16424;50.956;5.320;2023-11-19T09:35:50;14.90;99.90
29453;DHT22;16424;50.956;5.320;2023-11-19T09:38:16;14.40;99.90
29453;DHT22;16424;50.956;5.320;2023-11-19T09:40:42;14.30;99.90
29453;DHT22;16424;50.956;5.320;2023-11-19T09:43:08;14.30;99.90
29453;DHT22;16424;50.956;5.320;2023-11-19T09:45:49;14.20;99.90
29453;DHT22;16424;50.956;5.320;2023-11-19T09:48:18;13.90;99.90
29453;DHT22;16424;50.956;5.320;2023-11-19T09:50:48;13.90;99.90
29453;DHT22;16424;50.956;5.320;2023-11-19T09:53:14;13.80;99.90
29453;DHT22;16424;50.956;5.320;2023-11-19T09:55:41;13.80;99.90
29453;DHT22;16424;50.956;5.320;2023-11-19T09:58:07;13.70;99.90
29453;DHT22;16424;50.956;5.320;2023-11-19T10:00:34;13.70;99.90
29453;DHT22;16424;50.956;5.320;2023-11-19T10:03:00;13.80;99.90
29453;DHT22;16424;50.956;5.320;2023-11-19T10:05:26;13.80;99.90
29453;DHT22;16424;50.956;5.320;2023-11-19T10:07:52;14.10;99.90
29453;DHT22;16424;50.956;5.320;2023-11-19T10:10:18;14.30;99.90
29453;DHT22;16424;50.956;5.320;2023-11-19T10:12:47;14.30;99.90
29453;DHT22;16424;50.956;5.320;2023-11-19T10:15:23;14.20;99.90
29453;DHT22;16424;50.956;5.320;2023-11-19T10:17:58;14.30;99.90
29453;DHT22;16424;50.956;5.320;2023-11-19T10:20:24;14.50;99.90
29453;DHT22;16424;50.956;5.320;2023-11-19T10:22:55;14.60;99.90
29453;DHT22;16424;50.956;5.320;2023-11-19T10:25:22;14.70;99.90
29453;DHT22;16424;50.956;5.320;2023-11-19T10:27:49;14.70;99.90
29453;DHT22;16424;50.956;5.320;2023-11-19T10:30:28;14.60;99.90
29453;DHT22;16424;50.956;5.320;2023-11-19T10:35:28;14.40;99.90
29453;DHT22;16424;50.956;5.320;2023-11-19T10:37:54;14.50;99.90
29453;DHT22;16424;50.956;5.320;2023-11-19T10:40:20;14.60;99.90
29453;DHT22;16424;50.956;5.320;2023-11-19T10:42:45;14.50;99.90
29453;DHT22;16424;50.956;5.320;2023-11-19T10:45:22;14.70;99.90
29453;DHT22;16424;50.956;5.320;2023-11-19T10:47:51;14.50;99.90
29453;DHT22;16424;50.956;5.320;2023-11-19T10:50:17;14.20;99.90
29453;DHT22;16424;50.956;5.320;2023-11-19T10:52:44;14.10;99.90
29453;DHT22;16424;50.956;5.320;2023-11-19T10:55:11;14.20;99.90
29453;DHT22;16424;50.956;5.320;2023-11-19T10:57:43;14.20;99.90
29453;DHT22;16424;50.956;5.320;2023-11-19T11:00:13;14.40;99.90
29453;DHT22;16424;50.956;5.320;2023-11-19T11:02:45;14.40;99.90
29453;DHT22;16424;50.956;5.320;2023-11-19T11:05:13;14.50;99.90
29453;DHT22;16424;50.956;5.320;2023-11-19T11:07:40;14.50;99.90
29453;DHT22;16424;50.956;5.320;2023-11-19T11:10:07;14.70;99.90
29453;DHT22;16424;50.956;5.320;2023-11-19T11:12:37;14.80;99.90
29453;DHT22;16424;50.956;5.320;2023-11-19T11:15:06;14.60;99.90
29453;DHT22;16424;50.956;5.320;2023-11-19T11:17:33;14.70;99.90
29453;DHT22;16424;50.956;5.320;2023-11-19T11:19:59;15.00;99.90
29453;DHT22;16424;50.956;5.320;2023-11-19T11:22:26;15.10;99.90
29453;DHT22;16424;50.956;5.320;2023-11-19T11:25:16;15.00;99.90
29453;DHT22;16424;50.956;5.320;2023-11-19T11:36:13;14.20;99.90
29453;DHT22;16424;50.956;5.320;2023-11-19T11:38:42;14.10;99.90
29453;DHT22;16424;50.956;5.320;2023-11-19T11:41:22;14.00;99.90
29453;DHT22;16424;50.956;5.320;2023-11-19T11:43:52;14.00;99.90
29453;DHT22;16424;50.956;5.320;2023-11-19T11:49:06;13.90;99.90
29453;DHT22;16424;50.956;5.320;2023-11-19T11:57:11;14.00;99.90
29453;DHT22;16424;50.956;5.320;2023-11-19T12:02:11;14.00;99.90
29453;DHT22;16424;50.956;5.320;2023-11-19T12:04:39;13.90;99.90
29453;DHT22;16424;50.956;5.320;2023-11-19T12:07:12;13.90;99.90
29453;DHT22;16424;50.956;5.320;2023-11-19T12:09:40;14.10;99.90
29453;DHT22;16424;50.956;5.320;2023-11-19T12:12:25;14.20;99.90
29453;DHT22;16424;50.956;5.320;2023-11-19T12:15:07;14.20;99.90
29453;DHT22;16424;50.956;5.320;2023-11-19T12:17:46;14.20;99.90
29453;DHT22;16424;50.956;5.320;2023-11-19T12:20:15;14.30;99.90
29453;DHT22;16424;50.956;5.320;2023-11-19T12:22:42;14.50;99.90
29453;DHT22;16424;50.956;5.320;2023-11-19T12:25:10;14.70;99.90
29453;DHT22;16424;50.956;5.320;2023-11-19T12:27:39;14.50;99.90
29453;DHT22;16424;50.956;5.320;2023-11-19T12:30:06;14.30;99.90
29453;DHT22;16424;50.956;5.320;2023-11-19T12:32:42;14.50;99.90
29453;DHT22;16424;50.956;5.320;2023-11-19T12:35:09;14.50;99.90
29453;DHT22;16424;50.956;5.320;2023-11-19T12:37:47;14.30;99.90
29453;DHT22;16424;50.956;5.320;2023-11-19T12:40:21;14.30;99.90
29453;DHT22;16424;50.956;5.320;2023-11-19T12:42:51;14.50;99.90
29453;DHT22;16424;50.956;5.320;2023-11-19T12:45:18;14.60;99.90
29453;DHT22;16424;50.956;5.320;2023-11-19T12:47:46;14.70;99.90
29453;DHT22;16424;50.956;5.320;2023-11-19T12:50:15;14.40;99.90
29453;DHT22;16424;50.956;5.320;2023-11-19T12:52:43;14.30;99.90
29453;DHT22;16424;50.956;5.320;2023-11-19T12:55:32;14.20;99.90
29453;DHT22;16424;50.956;5.320;2023-11-19T12:57:58;14.20;99.90
29453;DHT22;16424;50.956;5.320;2023-11-19T13:00:26;14.20;99.90
29453;DHT22;16424;50.956;5.320;2023-11-19T13:02:54;14.40;99.90
29453;DHT22;16424;50.956;5.320;2023-11-19T13:08:10;14.40;99.90
29453;DHT22;16424;50.956;5.320;2023-11-19T13:13:16;14.30;99.90
29453;DHT22;16424;50.956;5.320;2023-11-19T13:15:42;14.30;99.90
29453;DHT22;16424;50.956;5.320;2023-11-19T13:18:10;14.10;99.90
29453;DHT22;16424;50.956;5.320;2023-11-19T13:20:36;13.80;99.90
29453;DHT22;16424;50.956;5.320;2023-11-19T13:23:03;13.90;99.90
29453;DHT22;16424;50.956;5.320;2023-11-19T13:25:30;13.80;99.90
29453;DHT22;16424;50.956;5.320;2023-11-19T13:27:56;13.70;99.90
29453;DHT22;16424;50.956;5.320;2023-11-19T13:30:22;13.80;99.90
29453;DHT22;16424;50.956;5.320;2023-11-19T13:32:49;13.80;99.90
29453;DHT22;16424;50.956;5.320;2023-11-19T13:35:15;13.90;99.90
29453;DHT22;16424;50.956;5.320;2023-11-19T13:37:42;13.80;99.90
29453;DHT22;16424;50.956;5.320;2023-11-19T13:40:08;13.90;99.90
29453;DHT22;16424;50.956;5.320;2023-11-19T13:42:41;14.00;99.90
29453;DHT22;16424;50.956;5.320;2023-11-19T13:45:14;14.00;99.90
29453;DHT22;16424;50.956;5.320;2023-11-19T13:47:41;13.90;99.90
29453;DHT22;16424;50.956;5.320;2023-11-19T13:50:14;14.00;99.90
29453;DHT22;16424;50.956;5.320;2023-11-19T13:52:43;14.00;99.90
29453;DHT22;16424;50.956;5.320;2023-11-19T13:55:10;14.00;99.90
29453;DHT22;16424;50.956;5.320;2023-11-19T13:57:38;14.00;99.90
29453;DHT22;16424;50.956;5.320;2023-11-19T14:00:05;14.00;99.90
29453;DHT22;16424;50.956;5.320;2023-11-19T14:02:35;13.90;99.90
29453;DHT22;16424;50.956;5.320;2023-11-19T14:05:00;13.80;99.90
29453;DHT22;16424;50.956;5.320;2023-11-19T14:07:27;13.80;99.90
29453;DHT22;16424;50.956;5.320;2023-11-19T14:09:53;13.80;99.90
29453;DHT22;16424;50.956;5.320;2023-11-19T14:12:19;14.00;99.90
29453;DHT22;16424;50.956;5.320;2023-11-19T14:14:45;13.90;99.90
29453;DHT22;16424;50.956;5.320;2023-11-19T14:17:11;13.90;99.90
29453;DHT22;16424;50.956;5.320;2023-11-19T14:19:37;13.80;99.90
29453;DHT22;16424;50.956;5.320;2023-11-19T14:22:04;13.70;99.90
29453;DHT22;16424;50.956;5.320;2023-11-19T14:24:30;13.80;99.90
29453;DHT22;16424;50.956;5.320;2023-11-19T14:26:56;13.80;99.90
29453;DHT22;16424;50.956;5.320;2023-11-19T14:29:24;13.80;99.90
29453;DHT22;16424;50.956;5.320;2023-11-19T14:31:51;13.60;99.90
29453;DHT22;16424;50.956;5.320;2023-11-19T14:34:17;13.50;99.90
29453;DHT22;16424;50.956;5.320;2023-11-19T14:36:44;13.40;99.90
29453;DHT22;16424;50.956;5.320;2023-11-19T14:39:10;13.30;99.90
29453;DHT22;16424;50.956;5.320;2023-11-19T14:41:36;13.30;99.90
29453;DHT22;16424;50.956;5.320;2023-11-19T14:44:01;13.20;99.90
29453;DHT22;16424;50.956;5.320;2023-11-19T14:46:29;13.20;99.90
29453;DHT22;16424;50.956;5.320;2023-11-19T14:48:54;13.40;99.90
29453;DHT22;16424;50.956;5.320;2023-11-19T14:51:20;13.40;99.90
29453;DHT22;16424;50.956;5.320;2023-11-19T14:53:46;13.50;99.90
29453;DHT22;16424;50.956;5.320;2023-11-19T14:56:12;13.70;99.90
29453;DHT22;16424;50.956;5.320;2023-11-19T14:58:39;13.60;99.90
29453;DHT22;16424;50.956;5.320;2023-11-19T15:01:05;13.60;99.90
29453;DHT22;16424;50.956;5.320;2023-11-19T15:03:32;13.60;99.90
29453;DHT22;16424;50.956;5.320;2023-11-19T15:05:58;13.50;99.90
29453;DHT22;16424;50.956;5.320;2023-11-19T15:08:25;13.50;99.90
29453;DHT22;16424;50.956;5.320;2023-11-19T15:10:50;13.50;99.90
29453;DHT22;16424;50.956;5.320;2023-11-19T15:13:16;13.60;99.90
29453;DHT22;16424;50.956;5.320;2023-11-19T15:15:41;13.50;99.90
29453;DHT22;16424;50.956;5.320;2023-11-19T15:18:07;13.60;99.90
29453;DHT22;16424;50.956;5.320;2023-11-19T15:20:35;13.70;99.90
29453;DHT22;16424;50.956;5.320;2023-11-19T15:23:01;13.60;99.90
29453;DHT22;16424;50.956;5.320;2023-11-19T15:25:27;13.70;99.90
29453;DHT22;16424;50.956;5.320;2023-11-19T15:27:53;13.60;99.90
29453;DHT22;16424;50.956;5.320;2023-11-19T15:30:19;13.60;99.90
29453;DHT22;16424;50.956;5.320;2023-11-19T15:32:44;13.50;99.90
29453;DHT22;16424;50.956;5.320;2023-11-19T15:35:10;13.50;99.90
29453;DHT22;16424;50.956;5.320;2023-11-19T15:37:36;13.40;99.90
29453;DHT22;16424;50.956;5.320;2023-11-19T15:40:06;13.40;99.90
29453;DHT22;16424;50.956;5.320;2023-11-19T15:42:34;13.50;99.90
29453;DHT22;16424;50.956;5.320;2023-11-19T15:44:59;13.50;99.90
29453;DHT22;16424;50.956;5.320;2023-11-19T15:47:25;13.40;99.90
29453;DHT22;16424;50.956;5.320;2023-11-19T15:49:51;13.50;99.90
29453;DHT22;16424;50.956;5.320;2023-11-19T15:52:16;13.60;99.90
29453;DHT22;16424;50.956;5.320;2023-11-19T15:54:42;13.50;99.90
29453;DHT22;16424;50.956;5.320;2023-11-19T15:57:08;13.50;99.90